createdAt,value
2023-02-27T00:00:47.251Z,18.55
2023-02-27T00:03:13.805Z,19.75
2023-02-27T00:05:41.900Z,19.08
2023-02-27T00:08:08.945Z,19.48
2023-02-27T00:10:35.758Z,19.27
2023-02-27T00:13:02.329Z,18.85
2023-02-27T00:15:31.812Z,18.98
2023-02-27T00:17:59.551Z,19.05
2023-02-27T00:20:26.767Z,20.20
2023-02-27T00:22:53.346Z,19.83
2023-02-27T00:25:19.951Z,19.75
2023-02-27T00:27:46.561Z,18.73
2023-02-27T00:30:15.590Z,19.42
2023-02-27T00:32:42.623Z,20.98
2023-02-27T00:35:11.006Z,20.05
2023-02-27T00:37:38.597Z,19.83
2023-02-27T00:40:06.498Z,20.17
2023-02-27T00:42:33.477Z,20.83
2023-02-27T00:45:00.107Z,20.33
2023-02-27T00:47:26.714Z,20.52
2023-02-27T00:49:53.358Z,20.20
2023-02-27T00:52:20.111Z,19.98
2023-02-27T00:54:46.795Z,20.48
2023-02-27T00:57:13.440Z,20.13
2023-02-27T00:59:40.003Z,19.95
2023-02-27T01:02:07.892Z,20.13
2023-02-27T01:04:34.526Z,20.77
2023-02-27T01:07:01.102Z,20.98
2023-02-27T01:09:27.677Z,20.42
2023-02-27T01:11:54.298Z,20.30
2023-02-27T01:14:20.952Z,20.90
2023-02-27T01:16:47.520Z,19.48
2023-02-27T01:19:14.090Z,19.88
2023-02-27T01:21:42.162Z,20.20
2023-02-27T01:24:09.808Z,21.50
2023-02-27T01:26:36.467Z,20.95
2023-02-27T01:29:04.659Z,21.00
2023-02-27T01:31:32.604Z,21.85
2023-02-27T01:33:59.225Z,20.63
2023-02-27T01:36:25.840Z,20.60
2023-02-27T01:38:52.424Z,20.88
2023-02-27T01:41:19.000Z,21.35
2023-02-27T01:44:02.300Z,20.27
2023-02-27T01:46:30.597Z,21.08
2023-02-27T01:49:12.908Z,20.60
2023-02-27T01:52:01.982Z,20.90
2023-02-27T01:54:31.159Z,20.70
2023-02-27T01:56:57.971Z,20.45
2023-02-27T01:59:24.804Z,20.63
2023-02-27T02:01:51.900Z,20.02
2023-02-27T02:04:27.676Z,20.73
2023-02-27T02:07:02.030Z,20.95
2023-02-27T02:09:29.868Z,20.77
2023-02-27T02:11:59.128Z,21.10
2023-02-27T02:14:27.682Z,20.65
2023-02-27T02:17:00.326Z,20.30
2023-02-27T02:20:08.116Z,20.40
2023-02-27T02:22:56.083Z,20.10
2023-02-27T02:25:34.790Z,20.52
2023-02-27T02:28:04.149Z,20.00
2023-02-27T02:31:18.737Z,20.40
2023-02-27T02:34:19.284Z,20.65
2023-02-27T02:36:45.785Z,19.88
2023-02-27T02:39:40.755Z,20.65
2023-02-27T02:42:20.968Z,21.90
2023-02-27T02:45:09.515Z,21.58
2023-02-27T02:48:01.136Z,21.58
2023-02-27T02:50:48.308Z,20.55
2023-02-27T02:53:36.967Z,20.40
2023-02-27T02:56:17.396Z,20.38
2023-02-27T02:58:52.333Z,20.52
2023-02-27T03:01:27.317Z,20.20
2023-02-27T03:04:03.754Z,19.65
2023-02-27T03:06:37.643Z,20.95
2023-02-27T03:09:12.102Z,19.50
2023-02-27T03:11:44.279Z,19.73
2023-02-27T03:14:35.282Z,20.08
2023-02-27T03:17:18.184Z,19.65
2023-02-27T03:20:13.000Z,19.92
2023-02-27T03:22:42.809Z,19.63
2023-02-27T03:25:14.322Z,19.25
2023-02-27T03:27:46.356Z,20.02
2023-02-27T03:30:20.033Z,19.58
2023-02-27T03:33:05.177Z,19.73
2023-02-27T03:39:01.960Z,20.23
2023-02-27T03:42:06.508Z,20.40
2023-02-27T03:44:55.968Z,20.60
2023-02-27T03:47:22.681Z,19.63
2023-02-27T03:49:52.036Z,19.75
2023-02-27T03:52:22.094Z,18.70
2023-02-27T03:55:15.076Z,20.08
2023-02-27T03:57:42.642Z,20.55
2023-02-27T04:00:13.815Z,19.52
2023-02-27T04:02:41.804Z,19.33
2023-02-27T04:05:08.626Z,19.77
2023-02-27T04:07:52.030Z,18.63
2023-02-27T04:10:43.008Z,18.45
2023-02-27T04:13:37.573Z,20.15
2023-02-27T04:16:31.273Z,18.90
2023-02-27T04:19:28.125Z,19.42
2023-02-27T04:22:28.246Z,18.77
2023-02-27T04:25:15.833Z,17.98
2023-02-27T04:27:45.248Z,19.30
2023-02-27T04:30:16.416Z,19.02
2023-02-27T04:32:58.087Z,18.88
2023-02-27T04:35:51.058Z,19.20
2023-02-27T04:38:29.019Z,18.77
2023-02-27T04:41:07.142Z,18.98
2023-02-27T04:43:37.377Z,18.75
2023-02-27T04:46:06.987Z,18.05
2023-02-27T04:48:43.686Z,19.10
2023-02-27T04:51:18.594Z,19.17
2023-02-27T04:53:54.352Z,18.20
2023-02-27T04:56:27.799Z,17.58
2023-02-27T04:59:00.236Z,17.73
2023-02-27T05:01:41.594Z,18.77
2023-02-27T05:04:14.198Z,18.05
2023-02-27T05:06:43.838Z,19.38
2023-02-27T05:09:35.370Z,18.45
2023-02-27T05:12:09.718Z,18.50
2023-02-27T05:14:39.774Z,19.77
2023-02-27T05:17:09.327Z,19.95
2023-02-27T05:19:40.937Z,18.45
2023-02-27T05:22:33.489Z,18.38
2023-02-27T05:25:12.248Z,18.63
2023-02-27T05:27:51.209Z,19.65
2023-02-27T05:30:27.201Z,18.25
2023-02-27T05:33:05.543Z,19.77
2023-02-27T05:35:38.206Z,19.25
2023-02-27T05:38:12.876Z,18.23
2023-02-27T05:40:43.711Z,19.35
2023-02-27T05:43:21.220Z,18.42
2023-02-27T05:45:53.344Z,18.00
2023-02-27T05:48:30.373Z,17.30
2023-02-27T05:50:59.028Z,18.63
2023-02-27T05:53:30.537Z,17.60
2023-02-27T05:56:01.811Z,17.85
2023-02-27T05:58:51.263Z,18.15
2023-02-27T06:01:17.894Z,17.88
2023-02-27T06:03:44.624Z,18.67
2023-02-27T06:06:18.597Z,18.25
2023-02-27T06:08:45.742Z,18.40
2023-02-27T06:11:13.306Z,18.02
2023-02-27T06:13:41.954Z,18.48
2023-02-27T06:16:12.719Z,17.25
2023-02-27T06:18:39.378Z,17.77
2023-02-27T06:21:06.568Z,17.52
2023-02-27T06:23:33.328Z,18.10
2023-02-27T06:26:00.090Z,18.15
2023-02-27T06:28:26.664Z,17.50
2023-02-27T06:30:57.677Z,18.60
2023-02-27T06:33:26.038Z,18.60
2023-02-27T06:35:53.075Z,17.73
2023-02-27T06:38:19.728Z,17.65
2023-02-27T06:40:46.312Z,18.02
2023-02-27T06:43:12.900Z,17.38
2023-02-27T06:45:39.494Z,18.80
2023-02-27T06:48:06.332Z,17.70
2023-02-27T06:50:33.056Z,17.77
2023-02-27T06:52:59.596Z,18.23
2023-02-27T06:55:26.165Z,17.25
2023-02-27T06:57:52.760Z,18.00
2023-02-27T07:00:19.751Z,18.88
2023-02-27T07:02:46.369Z,18.20
2023-02-27T07:05:12.982Z,17.75
2023-02-27T07:07:40.548Z,18.65
2023-02-27T07:10:11.715Z,18.23
2023-02-27T07:12:39.903Z,18.52
2023-02-27T07:15:07.751Z,17.73
2023-02-27T07:17:34.356Z,17.83
2023-02-27T07:20:02.053Z,17.33
2023-02-27T07:22:28.698Z,17.48
2023-02-27T07:24:55.280Z,18.33
2023-02-27T07:27:21.884Z,17.85
2023-02-27T07:29:48.455Z,17.80
2023-02-27T07:32:15.332Z,17.85
2023-02-27T07:34:42.016Z,19.25
2023-02-27T07:37:08.878Z,17.92
2023-02-27T07:39:35.552Z,18.40
2023-02-27T07:42:02.121Z,18.17
2023-02-27T07:44:28.722Z,17.48
2023-02-27T07:46:55.379Z,17.83
2023-02-27T07:49:22.118Z,18.73
2023-02-27T07:51:48.918Z,18.00
2023-02-27T07:54:15.633Z,17.67
2023-02-27T07:56:42.197Z,17.63
2023-02-27T07:59:08.851Z,17.42
2023-02-27T08:01:35.482Z,18.10
2023-02-27T08:04:02.042Z,17.27
2023-02-27T08:06:28.856Z,18.10
2023-02-27T08:08:55.870Z,17.17
2023-02-27T08:11:22.468Z,16.95
2023-02-27T08:14:05.448Z,17.13
2023-02-27T08:16:32.542Z,16.50
2023-02-27T08:19:00.253Z,17.35
2023-02-27T08:21:27.755Z,18.08
2023-02-27T08:23:54.683Z,17.13
2023-02-27T08:26:21.792Z,16.95
2023-02-27T08:28:48.380Z,17.25
2023-02-27T08:31:15.104Z,17.05
2023-02-27T08:33:41.681Z,17.52
2023-02-27T08:36:08.586Z,17.15
2023-02-27T08:38:35.202Z,16.80
2023-02-27T08:41:01.806Z,17.05
2023-02-27T08:43:28.388Z,16.52
2023-02-27T08:45:55.033Z,15.98
2023-02-27T08:48:24.061Z,16.58
2023-02-27T08:50:51.326Z,16.98
2023-02-27T08:53:18.055Z,16.85
2023-02-27T08:55:44.785Z,16.80
2023-02-27T08:58:11.321Z,17.17
2023-02-27T09:00:37.932Z,16.58
2023-02-27T09:03:04.588Z,17.17
2023-02-27T09:05:35.151Z,16.80
2023-02-27T09:08:03.256Z,16.35
2023-02-27T09:10:30.993Z,16.45
2023-02-27T09:12:57.588Z,16.48
2023-02-27T09:15:24.378Z,16.42
2023-02-27T09:17:51.422Z,17.73
2023-02-27T09:20:18.116Z,16.75
2023-02-27T09:22:44.834Z,17.85
2023-02-27T09:25:11.517Z,16.45
2023-02-27T09:27:38.090Z,17.08
2023-02-27T09:30:05.468Z,16.30
2023-02-27T09:32:32.710Z,16.90
2023-02-27T09:35:00.442Z,17.17
2023-02-27T09:37:26.988Z,16.92
2023-02-27T09:39:53.534Z,16.88
2023-02-27T09:42:26.536Z,17.52
2023-02-27T09:44:57.709Z,17.77
2023-02-27T09:47:48.071Z,17.75
2023-02-27T09:50:20.274Z,16.65
2023-02-27T09:52:46.916Z,16.42
2023-02-27T09:55:20.912Z,16.08
2023-02-27T09:57:56.426Z,16.65
2023-02-27T10:00:49.313Z,17.35
2023-02-27T10:03:36.203Z,17.92
2023-02-27T10:06:14.743Z,17.17
2023-02-27T10:09:22.390Z,16.58
2023-02-27T10:12:26.787Z,17.63
2023-02-27T10:15:05.988Z,17.27
2023-02-27T10:17:38.878Z,17.48
2023-02-27T10:20:10.648Z,17.80
2023-02-27T10:22:43.349Z,18.75
2023-02-27T10:25:30.266Z,17.45
2023-02-27T10:28:08.895Z,18.35
2023-02-27T10:30:35.951Z,17.25
2023-02-27T10:33:09.019Z,17.88
2023-02-27T10:35:39.091Z,17.27
2023-02-27T10:38:29.395Z,17.48
2023-02-27T10:40:58.197Z,17.58
2023-02-27T10:43:25.086Z,17.85
2023-02-27T10:45:52.986Z,17.40
2023-02-27T10:48:20.616Z,18.15
2023-02-27T10:50:52.241Z,17.70
2023-02-27T10:53:23.075Z,17.88
2023-02-27T10:56:05.273Z,18.45
2023-02-27T10:58:35.551Z,18.05
2023-02-27T11:01:04.990Z,18.67
2023-02-27T11:03:40.954Z,19.02
2023-02-27T11:06:34.575Z,18.90
2023-02-27T11:09:13.151Z,18.77
2023-02-27T11:11:39.870Z,18.90
2023-02-27T11:14:36.304Z,19.05
2023-02-27T11:17:03.708Z,20.33
2023-02-27T11:19:38.935Z,19.75
2023-02-27T11:22:17.275Z,20.88
2023-02-27T11:24:44.428Z,20.60
2023-02-27T11:27:26.490Z,20.13
2023-02-27T11:30:01.174Z,20.48
2023-02-27T11:35:04.592Z,20.30
2023-02-27T11:37:35.091Z,21.02
2023-02-27T11:40:12.826Z,20.70
2023-02-27T11:42:56.646Z,21.00
2023-02-27T11:46:19.452Z,20.13
2023-02-27T11:48:30.908Z,22.05
2023-02-27T11:51:00.234Z,20.50
2023-02-27T11:53:44.794Z,19.92
2023-02-27T11:56:17.101Z,21.02
2023-02-27T11:59:00.896Z,20.80
2023-02-27T12:01:49.416Z,20.05
2023-02-27T12:04:42.041Z,20.08
2023-02-27T12:07:15.225Z,19.77
2023-02-27T12:09:51.583Z,20.38
2023-02-27T12:12:28.093Z,19.77
2023-02-27T12:15:00.805Z,20.48
2023-02-27T12:17:44.951Z,20.20
2023-02-27T12:20:42.078Z,19.75
2023-02-27T12:23:30.326Z,19.60
2023-02-27T12:26:10.464Z,19.23
2023-02-27T12:28:36.979Z,19.45
2023-02-27T12:31:13.447Z,20.05
2023-02-27T12:34:18.688Z,20.92
2023-02-27T12:36:45.938Z,20.40
2023-02-27T12:39:28.670Z,19.77
2023-02-27T12:42:39.909Z,19.80
2023-02-27T12:45:15.638Z,20.92
2023-02-27T12:48:12.672Z,20.50
2023-02-27T12:50:50.861Z,19.05
2023-02-27T12:53:50.029Z,19.33
2023-02-27T12:56:20.680Z,20.60
2023-02-27T12:59:29.367Z,21.40
2023-02-27T13:02:44.434Z,19.33
2023-02-27T13:05:24.334Z,20.23
2023-02-27T13:07:59.988Z,19.08
2023-02-27T13:10:44.084Z,18.33
2023-02-27T13:13:26.228Z,20.10
2023-02-27T13:16:01.858Z,20.13
2023-02-27T13:18:38.564Z,19.48
2023-02-27T13:21:30.089Z,19.85
2023-02-27T13:24:15.007Z,19.58
2023-02-27T13:26:53.806Z,19.23
2023-02-27T13:29:23.426Z,19.10
2023-02-27T13:32:01.447Z,19.15
2023-02-27T13:34:40.209Z,18.67
2023-02-27T13:37:08.827Z,18.80
2023-02-27T13:39:45.706Z,19.38
2023-02-27T13:42:27.480Z,19.15
2023-02-27T13:44:54.142Z,19.48
2023-02-27T13:47:50.101Z,19.38
2023-02-27T13:50:21.256Z,20.00
2023-02-27T13:52:48.412Z,19.20
2023-02-27T13:55:31.216Z,20.27
2023-02-27T13:58:00.832Z,20.33
2023-02-27T14:00:33.041Z,19.92
2023-02-27T14:03:16.675Z,20.05
2023-02-27T14:05:46.285Z,19.83
2023-02-27T14:08:25.012Z,18.83
2023-02-27T14:11:16.476Z,20.23
2023-02-27T14:13:45.773Z,19.95
2023-02-27T14:16:37.418Z,19.58
2023-02-27T14:19:16.218Z,19.23
2023-02-27T14:21:55.848Z,19.45
2023-02-27T14:25:02.126Z,19.77
2023-02-27T14:27:52.015Z,20.25
2023-02-27T14:30:41.059Z,20.33
2023-02-27T14:33:13.698Z,20.20
2023-02-27T14:35:45.610Z,20.92
2023-02-27T14:38:17.902Z,21.88
2023-02-27T14:41:08.130Z,20.48
2023-02-27T14:43:55.065Z,21.17
2023-02-27T14:46:39.783Z,19.85
2023-02-27T14:49:17.984Z,21.75
2023-02-27T14:51:44.967Z,19.77
2023-02-27T14:54:21.243Z,20.38
2023-02-27T14:56:59.576Z,19.67
2023-02-27T14:59:34.054Z,20.65
2023-02-27T15:04:33.141Z,20.35
2023-02-27T15:07:00.789Z,21.15
2023-02-27T15:09:35.687Z,21.15
2023-02-27T15:12:04.645Z,20.52
2023-02-27T15:14:39.726Z,21.45
2023-02-27T15:17:38.236Z,21.60
2023-02-27T15:20:25.231Z,21.08
2023-02-27T15:22:51.817Z,20.17
2023-02-27T15:25:32.353Z,19.88
2023-02-27T15:28:07.436Z,20.23
2023-02-27T15:30:34.152Z,21.42
2023-02-27T15:33:02.838Z,19.35
2023-02-27T15:35:37.902Z,20.70
2023-02-27T15:38:05.089Z,19.98
2023-02-27T15:40:34.201Z,19.75
2023-02-27T15:43:01.723Z,20.88
2023-02-27T15:45:32.950Z,20.77
2023-02-27T15:48:00.161Z,20.33
2023-02-27T15:50:42.971Z,20.60
2023-02-27T15:53:13.801Z,19.98
2023-02-27T15:55:44.375Z,21.05
2023-02-27T15:58:20.301Z,20.77
2023-02-27T16:00:47.031Z,20.65
2023-02-27T16:03:22.235Z,20.05
2023-02-27T16:05:52.530Z,21.10
2023-02-27T16:08:20.487Z,20.27
2023-02-27T16:10:48.028Z,21.48
2023-02-27T16:13:40.063Z,20.20
2023-02-27T16:16:25.645Z,19.70
2023-02-27T16:18:57.499Z,21.05
2023-02-27T16:21:26.668Z,20.90
2023-02-27T16:23:54.497Z,21.58
2023-02-27T16:26:32.628Z,21.60
2023-02-27T16:29:03.769Z,20.67
2023-02-27T16:31:39.285Z,21.05
2023-02-27T16:34:42.799Z,21.20
2023-02-27T16:37:21.132Z,20.83
2023-02-27T16:39:50.707Z,20.00
2023-02-27T16:42:17.319Z,20.20
2023-02-27T16:44:43.958Z,20.45
2023-02-27T16:47:10.928Z,20.77
2023-02-27T16:49:39.081Z,20.65
2023-02-27T16:52:07.329Z,21.90
2023-02-27T16:54:35.231Z,20.77
2023-02-27T16:57:01.825Z,22.52
2023-02-27T16:59:33.610Z,21.55
2023-02-27T17:02:02.769Z,21.23
2023-02-27T17:04:30.424Z,22.98
2023-02-27T17:06:59.226Z,21.50
2023-02-27T17:09:27.590Z,20.92
2023-02-27T17:11:55.016Z,20.70
2023-02-27T17:14:24.955Z,21.00
2023-02-27T17:16:51.671Z,20.35
2023-02-27T17:19:21.448Z,21.10
2023-02-27T17:21:48.651Z,19.98
2023-02-27T17:24:15.372Z,19.85
2023-02-27T17:26:42.396Z,20.30
2023-02-27T17:29:09.833Z,20.42
2023-02-27T17:31:37.392Z,21.85
2023-02-27T17:34:05.394Z,20.95
2023-02-27T17:36:32.278Z,20.15
2023-02-27T17:39:02.888Z,20.60
2023-02-27T17:41:31.572Z,20.85
2023-02-27T17:43:59.149Z,23.08
2023-02-27T17:46:27.689Z,20.67
2023-02-27T17:48:56.244Z,22.33
2023-02-27T17:51:23.193Z,21.65
2023-02-27T17:53:49.783Z,21.98
2023-02-27T17:56:16.360Z,22.27
2023-02-27T17:58:45.914Z,21.80
2023-02-27T18:01:15.588Z,20.02
2023-02-27T18:03:44.022Z,20.83
2023-02-27T18:06:10.682Z,20.85
2023-02-27T18:08:37.235Z,19.85
2023-02-27T18:11:04.575Z,20.10
2023-02-27T18:13:31.172Z,20.20
2023-02-27T18:15:58.025Z,20.02
2023-02-27T18:18:24.578Z,20.30
2023-02-27T18:21:06.648Z,20.00
2023-02-27T18:23:33.313Z,21.70
2023-02-27T18:26:00.523Z,21.50
2023-02-27T18:28:27.200Z,20.85
2023-02-27T18:30:53.883Z,22.38
2023-02-27T18:33:20.811Z,23.20
2023-02-27T18:35:47.477Z,22.33
2023-02-27T18:38:14.572Z,24.35
2023-02-27T18:40:42.766Z,23.15
2023-02-27T18:43:13.902Z,21.52
2023-02-27T18:45:41.005Z,22.40
2023-02-27T18:48:08.384Z,22.80
2023-02-27T18:50:35.024Z,21.73
2023-02-27T18:53:01.644Z,21.13
2023-02-27T18:55:28.332Z,22.33
2023-02-27T18:57:55.175Z,21.10
2023-02-27T19:00:24.106Z,20.88
2023-02-27T19:02:50.799Z,19.48
2023-02-27T19:05:17.510Z,19.58
2023-02-27T19:07:44.132Z,20.23
2023-02-27T19:10:11.620Z,20.60
2023-02-27T19:12:38.185Z,19.85
2023-02-27T19:15:05.726Z,19.70
2023-02-27T19:17:33.554Z,21.83
2023-02-27T19:20:00.522Z,20.58
2023-02-27T19:22:30.779Z,20.33
2023-02-27T19:24:57.726Z,19.45
2023-02-27T19:27:24.538Z,19.88
2023-02-27T19:29:51.446Z,19.75
2023-02-27T19:32:18.123Z,19.48
2023-02-27T19:34:44.872Z,19.70
2023-02-27T19:37:11.513Z,20.45
2023-02-27T19:39:38.096Z,18.65
2023-02-27T19:42:04.732Z,19.33
2023-02-27T19:44:32.400Z,19.85
2023-02-27T19:46:59.108Z,19.85
2023-02-27T19:49:25.743Z,19.08
2023-02-27T19:51:52.377Z,18.58
2023-02-27T19:54:18.965Z,18.63
2023-02-27T19:56:45.623Z,19.70
2023-02-27T19:59:12.711Z,19.25
2023-02-27T20:01:40.784Z,18.80
2023-02-27T20:04:09.103Z,19.40
2023-02-27T20:06:41.973Z,19.58
2023-02-27T20:09:11.508Z,19.73
2023-02-27T20:11:38.202Z,19.23
2023-02-27T20:14:04.989Z,18.80
2023-02-27T20:16:35.586Z,18.90
2023-02-27T20:19:07.048Z,18.17
2023-02-27T20:21:33.980Z,18.88
2023-02-27T20:24:01.364Z,19.17
2023-02-27T20:26:36.609Z,18.85
2023-02-27T20:29:06.819Z,20.88
2023-02-27T20:31:36.164Z,18.75
2023-02-27T20:34:05.939Z,18.60
2023-02-27T20:36:33.986Z,19.85
2023-02-27T20:39:00.802Z,18.58
2023-02-27T20:41:29.618Z,19.65
2023-02-27T20:43:56.962Z,19.08
2023-02-27T20:46:27.958Z,19.95
2023-02-27T20:49:00.394Z,19.75
2023-02-27T20:51:30.326Z,20.02
2023-02-27T20:53:59.310Z,19.58
2023-02-27T20:56:32.090Z,19.13
2023-02-27T20:59:01.364Z,19.60
2023-02-27T21:01:28.592Z,18.75
2023-02-27T21:03:57.678Z,18.33
2023-02-27T21:06:24.761Z,18.73
2023-02-27T21:08:55.272Z,19.67
2023-02-27T21:11:27.194Z,19.90
2023-02-27T21:13:55.780Z,18.65
2023-02-27T21:16:24.993Z,19.15
2023-02-27T21:18:52.868Z,18.60
2023-02-27T21:24:59.847Z,18.52
2023-02-27T21:27:26.632Z,20.00
2023-02-27T21:29:53.280Z,20.55
2023-02-27T21:32:19.937Z,20.38
2023-02-27T21:34:46.605Z,19.55
2023-02-27T21:37:13.175Z,19.55
2023-02-27T21:39:39.723Z,20.80
2023-02-27T21:42:07.419Z,18.90
2023-02-27T21:44:34.190Z,19.90
2023-02-27T21:47:09.763Z,18.65
2023-02-27T21:49:37.303Z,19.60
2023-02-27T21:52:04.185Z,18.98
2023-02-27T21:54:30.774Z,19.27
2023-02-27T21:57:01.854Z,19.13
2023-02-27T21:59:28.987Z,19.45
2023-02-27T22:01:57.251Z,20.15
2023-02-27T22:04:24.352Z,19.40
2023-02-27T22:06:52.381Z,19.23
2023-02-27T22:09:19.834Z,20.88
2023-02-27T22:11:46.919Z,19.17
2023-02-27T22:14:13.551Z,19.92
2023-02-27T22:16:40.760Z,18.83
2023-02-27T22:19:09.754Z,20.65
2023-02-27T22:21:37.236Z,19.80
2023-02-27T22:24:50.495Z,20.15
2023-02-27T22:27:17.208Z,20.45
2023-02-27T22:29:43.789Z,19.65
2023-02-27T22:32:10.438Z,20.23
2023-02-27T22:34:37.081Z,19.13
2023-02-27T22:37:03.632Z,20.65
2023-02-27T22:39:31.185Z,20.65
2023-02-27T22:41:57.780Z,19.83
2023-02-27T22:44:24.412Z,21.67
2023-02-27T22:46:51.140Z,20.42
2023-02-27T22:49:20.638Z,20.88
2023-02-27T22:51:50.735Z,20.27
2023-02-27T22:54:19.303Z,21.52
2023-02-27T22:56:45.966Z,21.40
2023-02-27T22:59:12.568Z,20.80
2023-02-27T23:01:39.200Z,18.88
2023-02-27T23:04:08.509Z,21.70
2023-02-27T23:06:38.880Z,20.35
2023-02-27T23:09:07.546Z,19.73
2023-02-27T23:11:34.302Z,21.95
2023-02-27T23:14:00.928Z,19.52
2023-02-27T23:16:27.859Z,20.27
2023-02-27T23:18:56.902Z,20.58
2023-02-27T23:21:31.922Z,20.48
2023-02-27T23:23:58.629Z,22.23
2023-02-27T23:26:28.395Z,22.38
2023-02-27T23:28:56.695Z,22.05
2023-02-27T23:31:23.814Z,21.73
2023-02-27T23:33:50.480Z,20.50
2023-02-27T23:36:17.661Z,20.35
2023-02-27T23:38:46.646Z,21.10
2023-02-27T23:41:17.310Z,20.95
2023-02-27T23:43:44.671Z,22.83
2023-02-27T23:46:16.340Z,21.95
2023-02-27T23:48:43.536Z,20.40
2023-02-27T23:51:11.236Z,21.52
2023-02-27T23:53:39.321Z,21.35
2023-02-27T23:56:24.028Z,23.05
2023-02-27T23:58:59.397Z,21.63
